Time;durP1;ratioP1;P1;durP2;ratioP2;P2;SDS_P1;SDS_P2;PMS_P1;PMS_P2;Temp;Humidity;BMP_temperature;BMP_pressure;BME280_temperature;BME280_humidity;BME280_pressure;Samples;Min_cycle;Max_cycle;Signal;HPM_P1;HPM_P2
2022/01/01 00:01:28;;;;;;;10.02;7.70;;;;;;;15.51;49.00;94010.00;4941662;28;20069;-85
2022/01/01 00:03:53;;;;;;;10.40;7.43;;;;;;;15.50;48.79;94013.22;4952270;29;20532;-82
2022/01/01 00:06:19;;;;;;;9.10;7.05;;;;;;;15.50;48.77;94021.38;4936068;28;20050;-83
2022/01/01 00:08:44;;;;;;;9.68;7.60;;;;;;;15.47;48.77;94028.53;4952399;28;20043;-82
2022/01/01 00:11:09;;;;;;;8.57;7.07;;;;;;;15.51;49.08;94020.16;4919541;28;20461;-82
2022/01/01 00:13:35;;;;;;;7.85;6.35;;;;;;;15.44;48.77;94024.78;4936356;28;20062;-83
2022/01/01 00:16:00;;;;;;;8.13;6.43;;;;;;;15.50;48.84;94019.41;4952391;28;20032;-82
2022/01/01 00:18:26;;;;;;;7.85;7.05;;;;;;;15.51;48.93;94033.78;4951584;28;20039;-83
2022/01/01 00:20:51;;;;;;;12.38;7.38;;;;;;;15.50;48.82;94021.38;4936082;28;20082;-84
2022/01/01 00:23:16;;;;;;;9.43;7.25;;;;;;;15.48;48.90;94029.28;4951344;28;20047;-84
2022/01/01 00:25:42;;;;;;;8.65;6.80;;;;;;;15.48;48.79;94026.56;4936287;29;20043;-82
2022/01/01 00:28:07;;;;;;;10.30;7.35;;;;;;;15.52;48.95;94021.66;4952296;28;20478;-82
2022/01/01 00:30:33;;;;;;;10.55;7.22;;;;;;;15.55;48.71;94042.50;4938766;28;20043;-82
2022/01/01 00:32:58;;;;;;;9.13;7.13;;;;;;;15.52;48.75;94036.03;4955051;28;20031;-82
2022/01/01 00:35:23;;;;;;;8.07;6.53;;;;;;;15.52;48.81;94025.13;4971629;28;20034;-82
2022/01/01 00:37:49;;;;;;;7.60;6.38;;;;;;;15.54;48.74;94025.41;4954975;28;20130;-82
2022/01/01 00:40:14;;;;;;;9.15;7.20;;;;;;;15.54;48.78;94014.50;4954137;28;20485;-82
2022/01/01 00:42:39;;;;;;;7.90;6.53;;;;;;;15.52;48.68;94021.66;4954966;28;20039;-82
2022/01/01 00:45:05;;;;;;;8.07;6.25;;;;;;;15.53;48.79;94018.47;4971757;28;20093;-82
2022/01/01 00:47:31;;;;;;;7.80;6.65;;;;;;;15.55;48.65;94023.44;4954936;28;20398;-82
2022/01/01 00:49:56;;;;;;;6.70;5.78;;;;;;;15.51;48.59;94017.44;4938905;28;20401;-82
2022/01/01 00:52:21;;;;;;;8.85;6.65;;;;;;;15.55;48.72;94021.47;4938216;28;20055;-84
2022/01/01 00:54:47;;;;;;;7.93;6.72;;;;;;;15.53;48.73;94021.19;4971767;28;20034;-84
2022/01/01 00:57:12;;;;;;;8.15;6.53;;;;;;;15.54;48.61;94019.22;4938115;28;20552;-83
2022/01/01 00:59:38;;;;;;;9.63;7.15;;;;;;;15.49;48.61;94028.81;4935771;28;20043;-84
2022/01/01 01:02:03;;;;;;;8.55;6.90;;;;;;;15.51;48.85;94039.97;4953483;28;20034;-82
2022/01/01 01:04:28;;;;;;;8.77;6.72;;;;;;;15.53;48.85;94039.50;4938341;28;20502;-82
2022/01/01 01:06:54;;;;;;;7.72;6.38;;;;;;;15.52;48.76;94027.09;4954195;28;20058;-82
2022/01/01 01:09:19;;;;;;;9.73;7.60;;;;;;;15.52;48.78;94035.28;4953687;28;20043;-85
2022/01/01 01:11:47;;;;;;;8.07;6.75;;;;;;;15.53;48.74;94025.88;4938133;28;20070;-82
2022/01/01 01:14:20;;;;;;;8.27;6.72;;;;;;;15.53;48.46;94029.34;4971256;28;20585;-82
2022/01/01 01:16:50;;;;;;;8.43;7.03;;;;;;;15.54;48.76;94033.59;4955505;28;20043;-82
2022/01/01 01:19:15;;;;;;;8.32;6.60;;;;;;;15.55;48.74;94026.91;4953973;28;20489;-84
2022/01/01 01:21:41;;;;;;;8.43;6.25;;;;;;;15.50;48.77;94026.84;4971533;28;20045;-84
2022/01/01 01:24:06;;;;;;;9.85;7.07;;;;;;;15.54;48.54;94035.56;4937469;28;20411;-82
2022/01/01 01:26:32;;;;;;;8.55;6.53;;;;;;;15.51;48.83;94031.06;4954447;28;20089;-82
2022/01/01 01:28:58;;;;;;;8.50;6.47;;;;;;;15.49;48.75;94034.25;4954299;28;20049;-83
2022/01/01 01:31:28;;;;;;;8.23;6.60;;;;;;;15.56;48.67;94033.13;4953265;28;20039;-82
2022/01/01 01:33:54;;;;;;;6.95;5.88;;;;;;;15.46;49.04;94035.19;4970777;28;20051;-82
2022/01/01 01:36:19;;;;;;;10.23;7.57;;;;;;;15.50;48.76;94033.03;4953255;28;20039;-82
2022/01/01 01:38:44;;;;;;;6.55;5.53;;;;;;;15.44;48.98;94030.22;4970984;28;20050;-82
2022/01/01 01:41:10;;;;;;;7.93;6.68;;;;;;;15.45;48.89;94028.25;4936567;28;20800;-83
2022/01/01 01:43:36;;;;;;;8.80;6.72;;;;;;;15.46;48.84;94029.00;4954210;28;20053;-83
2022/01/01 01:46:05;;;;;;;7.60;6.32;;;;;;;15.43;49.04;94031.44;4937639;28;20402;-81
2022/01/01 01:48:32;;;;;;;7.75;6.75;;;;;;;15.47;48.95;94035.94;4938343;28;20035;-84
2022/01/01 01:50:57;;;;;;;7.95;7.07;;;;;;;15.50;48.83;94038.47;4937691;28;20059;-84
2022/01/01 01:53:23;;;;;;;10.45;6.40;;;;;;;15.47;49.00;94041.41;4953127;28;20039;-83
2022/01/01 01:55:48;;;;;;;8.80;6.03;;;;;;;15.41;49.21;94035.88;4953359;28;20038;-84
2022/01/01 01:58:13;;;;;;;8.40;6.43;;;;;;;15.46;48.95;94029.75;4936947;28;20043;-82
2022/01/01 02:01:14;;;;;;;8.00;6.97;;;;;;;15.43;48.84;94022.53;4960823;28;20038;-84
2022/01/01 02:03:37;;;;;;;9.95;7.00;;;;;;;15.48;48.81;94021.84;4958200;28;20038;-84
2022/01/01 02:06:05;;;;;;;6.10;5.50;;;;;;;15.46;48.80;94029.75;4921181;28;20038;-81
2022/01/01 02:08:30;;;;;;;7.90;6.63;;;;;;;15.46;48.24;94021.59;4961790;28;20090;-82
2022/01/01 02:10:56;;;;;;;8.05;5.88;;;;;;;15.42;48.86;94029.94;4966614;28;20031;-82
2022/01/01 02:13:28;;;;;;;8.98;7.03;;;;;;;15.50;48.82;94032.28;4951522;28;20042;-82
2022/01/01 02:18:20;;;;;;;8.98;6.95;;;;;;;15.47;48.90;94042.16;4949497;28;20048;-82
2022/01/01 02:20:49;;;;;;;10.35;6.88;;;;;;;15.48;48.83;94032.75;4934294;28;20047;-83
2022/01/01 02:23:17;;;;;;;8.77;6.18;;;;;;;15.50;48.90;94038.47;4944527;28;20134;-82
2022/01/01 02:25:43;;;;;;;8.65;7.18;;;;;;;15.46;48.96;94027.03;4937447;28;20035;-82
2022/01/01 02:28:10;;;;;;;7.75;6.95;;;;;;;15.48;48.83;94048.34;4936455;28;20486;-83
2022/01/01 02:30:35;;;;;;;7.72;6.60;;;;;;;15.50;48.89;94052.09;4936994;28;20043;-82
2022/01/01 02:33:01;;;;;;;6.97;5.85;;;;;;;15.48;48.88;94062.72;4937088;28;20537;-82
2022/01/01 02:35:26;;;;;;;9.35;7.32;;;;;;;15.48;48.77;94061.97;4952628;28;20111;-83
2022/01/01 02:37:51;;;;;;;8.63;6.85;;;;;;;15.48;48.92;94057.28;4936911;28;20038;-82
2022/01/01 02:40:17;;;;;;;9.32;6.85;;;;;;;15.53;48.75;94061.31;4952474;28;20538;-82
2022/01/01 02:42:43;;;;;;;9.93;6.10;;;;;;;15.47;49.09;94060.47;4970624;28;20046;-83
2022/01/01 02:45:10;;;;;;;8.60;7.20;;;;;;;15.52;49.10;94059.81;4920488;28;20050;-82
2022/01/01 02:47:36;;;;;;;7.90;6.60;;;;;;;15.49;48.82;94058.78;4921200;28;20066;-82
2022/01/01 02:50:02;;;;;;;7.38;6.57;;;;;;;15.49;48.85;94064.22;4952755;28;20098;-83
2022/01/01 02:52:27;;;;;;;8.10;7.15;;;;;;;15.52;48.72;94076.16;4952066;28;20042;-82
2022/01/01 02:54:53;;;;;;;7.97;6.07;;;;;;;15.48;48.84;94065.44;4953187;28;20660;-82
2022/01/01 02:57:18;;;;;;;7.93;6.47;;;;;;;15.51;48.72;94069.94;4936495;28;20043;-82
2022/01/01 02:59:43;;;;;;;7.47;6.38;;;;;;;15.51;48.74;94069.19;4949593;28;20402;-83
2022/01/01 03:02:09;;;;;;;8.77;6.68;;;;;;;15.46;48.85;94067.91;4963829;28;20034;-82
2022/01/01 03:04:34;;;;;;;7.93;5.90;;;;;;;15.47;48.83;94068.66;4953141;28;20039;-81
2022/01/01 03:07:00;;;;;;;8.32;7.18;;;;;;;15.50;48.82;94070.44;4936005;28;20058;-83
2022/01/01 03:09:34;;;;;;;8.10;6.82;;;;;;;15.52;48.80;94073.44;4969534;28;20553;-82
2022/01/01 03:11:59;;;;;;;8.60;6.72;;;;;;;15.48;48.89;94076.34;4954025;28;20068;-82
2022/01/01 03:14:25;;;;;;;6.50;5.85;;;;;;;15.49;49.00;94077.09;4952603;28;20047;-83
2022/01/01 03:16:51;;;;;;;9.30;6.22;;;;;;;15.52;48.91;94071.44;4952928;28;20035;-83
2022/01/01 03:19:16;;;;;;;8.18;6.80;;;;;;;15.51;48.81;94072.69;4920244;28;20047;-83
2022/01/01 03:21:42;;;;;;;8.50;6.20;;;;;;;15.53;49.02;94075.69;4936517;28;20046;-82
2022/01/01 03:24:08;;;;;;;8.60;7.10;;;;;;;15.53;48.66;94072.19;4951762;28;20035;-83
2022/01/01 03:26:33;;;;;;;7.85;6.60;;;;;;;15.49;49.01;94085.28;4953382;28;20121;-84
2022/01/01 03:28:58;;;;;;;8.07;6.97;;;;;;;15.49;48.96;94083.31;4969622;28;20046;-84
2022/01/01 03:31:25;;;;;;;7.68;6.28;;;;;;;15.47;48.66;94087.72;4951922;28;20047;-82
2022/01/01 03:33:51;;;;;;;8.38;6.63;;;;;;;15.50;49.00;94092.22;4936982;28;20046;-82
2022/01/01 03:36:17;;;;;;;7.20;6.40;;;;;;;15.50;48.64;94084.06;4951607;28;20038;-82
2022/01/01 03:38:42;;;;;;;9.27;5.93;;;;;;;15.50;48.89;94086.78;4952711;28;20039;-82
2022/01/01 03:41:07;;;;;;;9.55;6.55;;;;;;;15.50;48.80;94073.91;4951817;28;20039;-82
2022/01/01 03:43:33;;;;;;;7.78;6.22;;;;;;;15.52;48.86;94079.63;4952555;28;20058;-83
2022/01/01 03:45:58;;;;;;;7.05;6.35;;;;;;;15.49;48.80;94086.03;4951730;28;20526;-82
2022/01/01 03:48:24;;;;;;;8.27;6.38;;;;;;;15.47;48.95;94087.72;4969212;28;20050;-84
2022/01/01 03:50:49;;;;;;;7.38;6.50;;;;;;;15.47;48.88;94093.91;4952304;28;20043;-83
2022/01/01 03:53:16;;;;;;;8.40;6.57;;;;;;;15.52;48.85;94087.81;4968950;28;20035;-84
2022/01/01 03:55:41;;;;;;;9.15;6.07;;;;;;;15.51;48.92;94093.72;4952554;28;20118;-82
2022/01/01 03:58:07;;;;;;;7.93;6.53;;;;;;;15.49;48.94;94085.28;4968659;28;20035;-84
2022/01/01 04:00:32;;;;;;;8.30;7.07;;;;;;;15.46;49.10;94097.88;4943110;28;20089;-82
2022/01/01 04:03:11;;;;;;;6.35;5.72;;;;;;;15.45;48.72;94107.25;4921551;28;20042;-82
2022/01/01 04:05:37;;;;;;;7.90;6.63;;;;;;;15.51;48.80;94105.38;4940018;28;20035;-84
2022/01/01 04:08:03;;;;;;;7.47;6.43;;;;;;;15.48;48.73;94111.78;4955126;28;20381;-82
2022/01/01 04:10:31;;;;;;;7.57;6.10;;;;;;;15.47;48.86;94110.28;4939848;28;20045;-84
2022/01/01 04:12:57;;;;;;;8.02;6.20;;;;;;;15.47;48.69;94109.50;4955655;28;20039;-82
2022/01/01 04:15:22;;;;;;;7.55;5.95;;;;;;;15.47;48.47;94110.28;4923379;28;20046;-84
2022/01/01 04:17:48;;;;;;;8.07;6.30;;;;;;;15.51;48.76;94107.34;4955543;28;20039;-82
2022/01/01 04:20:14;;;;;;;6.97;5.90;;;;;;;15.52;49.00;94120.50;4971911;28;20042;-84
2022/01/01 04:22:39;;;;;;;8.70;5.95;;;;;;;15.52;48.78;94123.22;4955535;28;20039;-84
2022/01/01 04:25:05;;;;;;;7.57;6.40;;;;;;;15.50;48.74;94127.66;4972050;28;20085;-85
2022/01/01 04:27:30;;;;;;;8.80;6.32;;;;;;;15.49;48.71;94135.06;4955114;28;20466;-83
2022/01/01 04:29:56;;;;;;;6.60;5.65;;;;;;;15.51;48.55;94137.31;4955205;28;20043;-82
2022/01/01 04:32:21;;;;;;;8.55;6.82;;;;;;;15.49;48.80;94137.78;4951200;28;20058;-84
2022/01/01 04:34:46;;;;;;;7.55;6.13;;;;;;;15.53;48.52;94151.22;4951740;28;20385;-82
2022/01/01 04:37:13;;;;;;;7.72;6.38;;;;;;;15.50;48.71;94165.78;4935298;28;20039;-83
2022/01/01 04:39:39;;;;;;;8.27;6.72;;;;;;;15.51;48.65;94148.22;4952048;28;20523;-84
2022/01/01 04:42:04;;;;;;;7.15;5.82;;;;;;;15.53;48.80;94149.25;4950891;28;20051;-82
2022/01/01 04:44:30;;;;;;;8.95;7.03;;;;;;;15.50;48.69;94155.66;4935916;28;20028;-84
2022/01/01 04:46:55;;;;;;;7.50;5.53;;;;;;;15.51;48.96;94150.94;4952621;28;20039;-84
2022/01/01 04:49:22;;;;;;;9.02;6.70;;;;;;;15.50;48.69;94146.72;4919778;28;20044;-83
2022/01/01 04:51:48;;;;;;;7.93;6.30;;;;;;;15.47;48.90;94158.56;4951811;28;20040;-84
2022/01/01 04:54:15;;;;;;;7.63;6.47;;;;;;;15.46;48.66;94148.88;4950833;28;20035;-81
2022/01/01 04:56:45;;;;;;;7.22;6.07;;;;;;;15.43;48.75;94154.06;4951613;28;20094;-84
2022/01/01 04:59:11;;;;;;;7.60;6.07;;;;;;;15.50;48.46;94163.06;4933881;28;20035;-84
2022/01/01 05:01:37;;;;;;;7.18;5.50;;;;;;;15.46;48.66;94174.16;4943686;28;20035;-82
2022/01/01 05:04:03;;;;;;;7.47;6.55;;;;;;;15.48;48.82;94173.69;4951151;28;20035;-81
2022/01/01 05:06:29;;;;;;;9.38;6.47;;;;;;;15.50;48.81;94187.59;4951175;28;20039;-82
2022/01/01 05:08:54;;;;;;;6.38;5.57;;;;;;;15.50;48.90;94179.41;4919562;29;20045;-82
2022/01/01 05:11:19;;;;;;;7.03;5.90;;;;;;;15.49;48.97;94175.94;4934750;28;20058;-82
2022/01/01 05:13:45;;;;;;;7.75;6.20;;;;;;;15.48;48.89;94181.88;4951775;28;20039;-82
2022/01/01 05:16:15;;;;;;;7.13;6.43;;;;;;;15.48;48.98;94181.88;4950330;28;20080;-83
2022/01/01 05:18:40;;;;;;;9.77;6.90;;;;;;;15.50;48.99;94177.44;4951218;28;20311;-83
2022/01/01 05:21:06;;;;;;;7.70;6.72;;;;;;;15.50;48.60;94180.16;4950543;28;20039;-83
2022/01/01 05:23:31;;;;;;;9.82;6.43;;;;;;;15.54;48.79;94182.72;4951356;28;20039;-83
2022/01/01 05:25:57;;;;;;;7.38;6.50;;;;;;;15.49;48.90;94195.00;4935009;28;20039;-81
2022/01/01 05:28:22;;;;;;;7.47;6.18;;;;;;;15.49;48.96;94194.25;4934314;28;20050;-82
2022/01/01 05:30:48;;;;;;;6.90;5.80;;;;;;;15.51;48.75;94189.09;4919057;29;20051;-83
2022/01/01 05:33:13;;;;;;;8.02;6.20;;;;;;;15.49;48.69;94188.81;4949865;28;20438;-82
2022/01/01 05:35:38;;;;;;;8.93;6.47;;;;;;;15.52;48.64;94196.03;4952056;28;20039;-84
2022/01/01 05:38:04;;;;;;;7.03;6.28;;;;;;;15.49;48.66;94199.72;4933813;28;20035;-82
2022/01/01 05:40:30;;;;;;;8.48;6.55;;;;;;;15.51;48.72;94198.03;4952014;28;20557;-84
2022/01/01 05:42:56;;;;;;;7.85;6.38;;;;;;;15.53;48.81;94192.84;4951669;28;20051;-82
2022/01/01 05:45:21;;;;;;;7.00;5.90;;;;;;;15.51;48.74;94194.53;4950216;28;20086;-84
2022/01/01 05:47:46;;;;;;;6.47;5.57;;;;;;;15.49;48.58;94191.53;4950293;28;20050;-82
2022/01/01 05:50:12;;;;;;;7.68;6.35;;;;;;;15.49;48.87;94191.53;4933904;28;20040;-82
2022/01/01 05:52:37;;;;;;;7.28;6.43;;;;;;;15.47;48.68;94191.25;4934634;28;20399;-83
2022/01/01 05:55:03;;;;;;;8.82;6.70;;;;;;;15.50;48.82;94190.31;4950941;28;20513;-81
2022/01/01 05:57:28;;;;;;;9.15;6.57;;;;;;;15.50;48.66;94187.59;4934463;28;20355;-84
2022/01/01 05:59:54;;;;;;;8.13;7.20;;;;;;;15.52;48.62;94190.59;4943628;28;20410;-83
2022/01/01 06:02:19;;;;;;;7.32;6.00;;;;;;;15.47;48.86;94193.97;4947597;28;20398;-83
2022/01/01 06:04:44;;;;;;;7.15;5.88;;;;;;;15.50;48.58;94199.25;4934372;28;20051;-83
2022/01/01 06:07:10;;;;;;;8.07;6.30;;;;;;;15.46;48.86;94197.94;4932180;28;20197;-83
2022/01/01 06:09:36;;;;;;;7.15;6.00;;;;;;;15.53;48.82;94211.19;4948971;28;20055;-83
2022/01/01 06:12:01;;;;;;;6.75;6.05;;;;;;;15.53;48.86;94211.94;4948775;28;20553;-84
2022/01/01 06:14:27;;;;;;;8.50;6.85;;;;;;;15.49;48.54;94216.06;4949476;28;20521;-83
2022/01/01 06:16:52;;;;;;;8.27;6.22;;;;;;;15.48;48.69;94215.31;4933519;28;20047;-83
2022/01/01 06:19:17;;;;;;;6.97;6.15;;;;;;;15.51;48.77;94219.06;4949669;28;20450;-83
2022/01/01 06:21:43;;;;;;;7.38;5.97;;;;;;;15.49;48.85;94219.53;4950213;28;20043;-82
2022/01/01 06:24:08;;;;;;;9.18;6.75;;;;;;;15.51;48.73;94216.34;4933557;28;20039;-82
2022/01/01 06:26:34;;;;;;;7.65;5.80;;;;;;;15.49;48.74;94214.09;4933642;28;20122;-82
2022/01/01 06:28:59;;;;;;;7.40;6.13;;;;;;;15.48;48.78;94220.00;4933879;28;20418;-82
2022/01/01 06:31:25;;;;;;;8.70;6.38;;;;;;;15.47;48.76;94215.78;4933088;28;20043;-83
2022/01/01 06:33:51;;;;;;;8.32;6.30;;;;;;;15.54;48.70;94212.69;4933897;28;20039;-83
2022/01/01 06:36:17;;;;;;;7.45;6.18;;;;;;;15.50;48.26;94218.31;4932822;28;20039;-82
2022/01/01 06:38:43;;;;;;;7.55;6.20;;;;;;;15.53;48.64;94219.34;4949896;28;20498;-83
2022/01/01 06:41:08;;;;;;;10.68;6.57;;;;;;;15.51;48.55;94217.09;4949112;28;20123;-83
2022/01/01 06:43:34;;;;;;;10.60;6.65;;;;;;;15.50;48.73;94223.00;4933452;29;20047;-82
2022/01/01 06:45:59;;;;;;;9.43;6.03;;;;;;;15.50;48.61;94229.22;4949282;28;20039;-84
2022/01/01 06:48:25;;;;;;;6.82;5.85;;;;;;;15.52;48.75;94231.47;4951028;28;20626;-82
2022/01/01 06:50:51;;;;;;;7.10;5.68;;;;;;;15.52;48.64;94221.31;4933523;28;20110;-81
2022/01/01 06:53:17;;;;;;;6.30;5.70;;;;;;;15.55;48.15;94219.63;4948928;28;20039;-84
2022/01/01 06:55:42;;;;;;;6.63;5.82;;;;;;;15.54;48.43;94215.41;4917741;29;20037;-83
2022/01/01 06:58:08;;;;;;;6.15;5.07;;;;;;;15.48;48.67;94220.75;4949803;28;20063;-82
2022/01/01 07:00:33;;;;;;;8.40;6.35;;;;;;;15.49;48.75;94216.81;4939382;28;20106;-84
2022/01/01 07:02:58;;;;;;;10.18;6.45;;;;;;;15.54;48.64;94218.88;4914450;29;20272;-82
2022/01/01 07:05:24;;;;;;;6.25;5.32;;;;;;;15.49;48.74;94219.53;4914077;29;20040;-84
2022/01/01 07:07:49;;;;;;;7.72;6.05;;;;;;;15.48;48.74;94228.19;4898706;29;20048;-83
2022/01/01 07:10:15;;;;;;;8.20;6.43;;;;;;;15.52;48.62;94232.22;4931912;28;20051;-82
2022/01/01 07:12:40;;;;;;;7.68;6.20;;;;;;;15.53;48.42;94232.97;4950692;28;20040;-81
2022/01/01 07:15:06;;;;;;;8.45;5.22;;;;;;;15.47;48.62;94230.16;4917021;28;20047;-82
2022/01/01 07:17:32;;;;;;;15.30;6.30;;;;;;;15.50;48.68;94233.91;4949333;28;20028;-83
2022/01/01 07:19:57;;;;;;;19.27;6.15;;;;;;;15.53;48.39;94236.44;4949401;28;20046;-82
2022/01/01 07:22:23;;;;;;;6.78;5.70;;;;;;;15.50;48.62;94226.50;4948780;28;20043;-82
2022/01/01 07:24:49;;;;;;;6.15;5.55;;;;;;;15.49;48.76;94237.84;4949509;28;20147;-82
2022/01/01 07:27:15;;;;;;;9.00;5.95;;;;;;;15.53;48.68;94249.31;4948887;28;20043;-83
2022/01/01 07:29:40;;;;;;;7.22;5.90;;;;;;;15.49;48.67;94237.84;4933713;29;20039;-82
2022/01/01 07:32:06;;;;;;;10.65;6.03;;;;;;;15.53;48.52;94243.88;4932519;28;20044;-83
2022/01/01 07:34:31;;;;;;;6.90;5.82;;;;;;;15.50;48.52;94264.63;4950371;28;20031;-84
2022/01/01 07:36:57;;;;;;;6.43;5.70;;;;;;;15.51;48.63;94243.59;4933211;28;20039;-83
2022/01/01 07:39:22;;;;;;;6.90;6.03;;;;;;;15.51;48.40;94232.69;4952278;28;20042;-82
2022/01/01 07:41:48;;;;;;;6.18;5.53;;;;;;;15.51;48.80;94216.34;4936995;29;20507;-82
2022/01/01 07:44:13;;;;;;;6.65;5.85;;;;;;;15.47;48.85;94213.81;4952016;28;20036;-82
2022/01/01 07:46:39;;;;;;;7.28;5.80;;;;;;;15.49;48.50;94214.09;4952791;28;20039;-82
2022/01/01 07:49:05;;;;;;;7.82;6.03;;;;;;;15.49;48.71;94211.38;4953129;28;20044;-83
2022/01/01 07:51:30;;;;;;;6.82;5.55;;;;;;;15.47;48.77;94216.53;4936987;28;20063;-83
2022/01/01 07:53:55;;;;;;;6.30;5.50;;;;;;;15.46;48.85;94206.84;4936906;28;20413;-82
2022/01/01 07:56:21;;;;;;;6.80;5.82;;;;;;;15.50;48.64;94231.19;4936009;28;20053;-82
2022/01/01 07:58:46;;;;;;;8.18;5.90;;;;;;;15.50;48.62;94217.56;4936590;28;20039;-84
2022/01/01 08:01:11;;;;;;;6.10;5.20;;;;;;;15.45;48.56;94224.44;4941354;28;20807;-82
2022/01/01 08:03:37;;;;;;;7.43;5.88;;;;;;;15.49;48.61;94216.81;4954051;28;20036;-82
2022/01/01 08:06:02;;;;;;;7.55;5.90;;;;;;;15.50;48.53;94226.50;4935801;28;20035;-81
2022/01/01 08:08:28;;;;;;;6.38;5.60;;;;;;;15.47;48.56;94221.22;4953467;28;20047;-83
2022/01/01 08:10:53;;;;;;;6.78;5.63;;;;;;;15.45;48.91;94224.44;4936027;28;20039;-83
2022/01/01 08:13:23;;;;;;;7.18;6.20;;;;;;;15.49;48.67;94232.41;4951937;28;20035;-83
2022/01/01 08:15:49;;;;;;;7.30;6.03;;;;;;;15.52;48.39;94234.19;4952538;28;20090;-83
2022/01/01 08:18:15;;;;;;;6.72;5.88;;;;;;;15.52;48.34;94239.66;4936088;28;20461;-84
2022/01/01 08:20:40;;;;;;;6.78;5.47;;;;;;;15.51;48.59;94235.41;4936357;29;20516;-82
2022/01/01 08:23:06;;;;;;;7.20;6.10;;;;;;;15.50;48.63;94233.91;4919363;28;20033;-84
2022/01/01 08:25:31;;;;;;;7.90;5.90;;;;;;;15.49;48.63;94243.31;4920372;29;20490;-82
2022/01/01 08:27:57;;;;;;;6.60;6.00;;;;;;;15.45;48.33;94238.03;4952034;28;20116;-83
2022/01/01 08:30:22;;;;;;;8.40;6.38;;;;;;;15.49;48.54;94244.06;4952084;28;20063;-83
2022/01/01 08:32:47;;;;;;;6.78;5.75;;;;;;;15.49;48.37;94246.78;4955471;28;20042;-84
2022/01/01 08:35:13;;;;;;;7.85;6.40;;;;;;;15.53;48.54;94231.00;4938401;28;20049;-82
2022/01/01 08:37:39;;;;;;;6.85;5.68;;;;;;;15.52;48.52;94245.84;4939125;28;20074;-82
2022/01/01 08:40:05;;;;;;;6.80;5.65;;;;;;;15.53;48.66;94249.31;4938475;28;20445;-84
2022/01/01 08:42:30;;;;;;;6.60;5.60;;;;;;;15.53;48.30;94243.88;4939004;28;20122;-83
2022/01/01 08:44:55;;;;;;;7.07;5.80;;;;;;;15.55;48.19;94244.16;4954969;28;20400;-83
2022/01/01 08:47:24;;;;;;;7.18;5.82;;;;;;;15.53;48.39;94241.16;4919328;28;20051;-82
2022/01/01 08:49:52;;;;;;;8.77;5.80;;;;;;;15.50;48.55;94242.84;4919906;29;20047;-82
2022/01/01 08:52:17;;;;;;;5.90;5.30;;;;;;;15.54;48.03;94237.19;4919922;29;20130;-84
2022/01/01 08:54:42;;;;;;;6.50;5.32;;;;;;;15.51;48.47;94246.31;4919871;29;20040;-83
2022/01/01 08:57:09;;;;;;;7.57;5.45;;;;;;;15.51;48.41;94232.69;4935148;28;20042;-82
2022/01/01 08:59:35;;;;;;;6.35;5.20;;;;;;;15.50;48.68;94233.91;4945395;28;20050;-82
2022/01/01 09:02:00;;;;;;;6.15;4.85;;;;;;;15.50;48.57;94231.19;4938650;28;20027;-84
2022/01/01 09:04:25;;;;;;;6.88;5.80;;;;;;;15.47;48.53;94232.88;4971495;28;20406;-82
2022/01/01 09:06:51;;;;;;;7.82;6.00;;;;;;;15.47;48.43;94229.41;4933205;29;20043;-83
2022/01/01 09:09:16;;;;;;;7.63;6.80;;;;;;;15.51;48.44;94233.44;4902760;28;20031;-82
2022/01/01 09:11:42;;;;;;;6.50;5.70;;;;;;;15.50;48.25;94242.09;4930587;28;20043;-83
2022/01/01 09:14:07;;;;;;;9.65;6.60;;;;;;;15.48;48.78;94239.84;4937800;28;20374;-82
2022/01/01 09:16:32;;;;;;;7.75;6.63;;;;;;;15.53;48.59;94246.59;4938361;28;20043;-83
2022/01/01 09:18:58;;;;;;;11.98;8.10;;;;;;;15.49;48.35;94246.78;4938501;28;20082;-83
2022/01/01 09:21:24;;;;;;;10.05;7.43;;;;;;;15.51;48.38;94240.88;4953603;28;20498;-84
2022/01/01 09:23:53;;;;;;;7.82;6.68;;;;;;;15.52;48.45;94240.41;4954075;28;20045;-84
2022/01/01 09:26:20;;;;;;;13.30;8.90;;;;;;;15.48;48.70;94249.97;4937918;28;20089;-84
2022/01/01 09:28:45;;;;;;;10.48;8.52;;;;;;;15.48;48.57;94249.97;4938472;28;20059;-84
2022/01/01 09:31:10;;;;;;;13.13;10.20;;;;;;;15.48;48.70;94252.69;4933925;28;20117;-83
2022/01/01 09:33:36;;;;;;;13.85;9.85;;;;;;;15.47;48.46;94256.66;4952033;28;20043;-84
2022/01/01 09:36:03;;;;;;;12.63;10.00;;;;;;;15.50;48.49;94250.25;4950276;28;20498;-83
2022/01/01 09:38:30;;;;;;;10.82;8.63;;;;;;;15.47;48.47;94251.94;4950518;28;20059;-82
2022/01/01 09:40:55;;;;;;;14.82;10.60;;;;;;;15.49;48.50;94246.78;4934612;28;20402;-82
2022/01/01 09:43:22;;;;;;;12.00;9.60;;;;;;;15.48;48.49;94261.63;4950525;28;20035;-84
2022/01/01 09:45:49;;;;;;;10.77;9.68;;;;;;;15.47;48.54;94256.66;4918641;29;20050;-82
2022/01/01 09:48:14;;;;;;;11.60;9.30;;;;;;;15.47;48.85;94262.09;4950029;28;20055;-83
2022/01/01 09:50:42;;;;;;;11.23;9.00;;;;;;;15.46;48.79;94269.53;4950351;28;20094;-82
2022/01/01 09:53:07;;;;;;;9.82;8.20;;;;;;;15.47;48.69;94276.47;4949927;28;20035;-82
2022/01/01 09:55:34;;;;;;;11.43;8.45;;;;;;;15.44;48.85;94282.88;4951891;28;20058;-82
2022/01/01 09:57:59;;;;;;;11.65;8.52;;;;;;;15.43;48.59;94271.22;4918461;29;20043;-82
2022/01/01 10:00:25;;;;;;;10.43;8.68;;;;;;;15.42;48.69;94274.41;4938907;28;20036;-83
2022/01/01 10:02:50;;;;;;;10.02;8.07;;;;;;;15.48;48.91;94271.78;4931345;28;20047;-82
2022/01/01 10:05:15;;;;;;;10.00;8.38;;;;;;;15.49;48.63;94267.84;4931736;28;20107;-83
2022/01/01 10:07:41;;;;;;;10.82;8.07;;;;;;;15.44;48.69;94259.09;4917371;29;20039;-83
2022/01/01 10:10:22;;;;;;;11.18;9.05;;;;;;;15.44;48.64;94259.09;4948780;28;20402;-82
2022/01/01 10:12:47;;;;;;;11.38;8.88;;;;;;;15.47;48.68;94262.84;4933008;28;20058;-83
2022/01/01 10:15:12;;;;;;;11.77;9.18;;;;;;;15.48;48.69;94267.09;4948638;28;20043;-82
2022/01/01 10:17:38;;;;;;;11.07;9.00;;;;;;;15.49;48.56;94265.84;4934195;28;20035;-84
2022/01/01 10:20:04;;;;;;;15.05;11.18;;;;;;;15.49;48.92;94254.22;4949652;28;20043;-83
2022/01/01 10:22:29;;;;;;;16.33;11.90;;;;;;;15.49;48.70;94263.13;4917898;29;20589;-82
2022/01/01 10:27:55;;;;;;;12.93;11.35;;;;;;;15.40;48.68;94249.59;4950985;28;20106;-82
2022/01/01 10:30:36;;;;;;;15.60;12.93;;;;;;;15.45;48.94;94251.66;4934073;28;20039;-83
2022/01/01 10:33:08;;;;;;;19.48;15.10;;;;;;;15.43;48.97;94263.03;4939378;28;20572;-82
2022/01/01 10:35:48;;;;;;;23.98;15.18;;;;;;;15.44;48.79;94272.72;4953284;28;20058;-82
2022/01/01 10:38:23;;;;;;;22.17;17.60;;;;;;;15.43;48.91;94268.47;4936704;28;20127;-82
2022/01/01 10:40:56;;;;;;;20.90;16.73;;;;;;;15.48;48.81;94266.31;4952741;28;20146;-83
2022/01/01 10:43:24;;;;;;;25.45;18.10;;;;;;;15.54;48.47;94273.38;4922380;28;20051;-82
2022/01/01 10:45:50;;;;;;;26.17;19.55;;;;;;;15.53;48.62;94273.84;4937697;28;20031;-84
2022/01/01 10:48:21;;;;;;;26.75;18.42;;;;;;;15.47;48.58;94279.19;4951948;28;20069;-84
2022/01/01 10:50:48;;;;;;;20.42;15.68;;;;;;;15.47;48.56;94279.19;4953109;28;20097;-82
2022/01/01 10:53:21;;;;;;;20.10;16.27;;;;;;;15.46;48.88;94285.13;4936117;28;20045;-82
2022/01/01 10:55:50;;;;;;;23.70;17.77;;;;;;;15.45;48.59;94281.63;4953016;28;20489;-84
2022/01/01 10:58:16;;;;;;;24.50;16.70;;;;;;;15.49;48.94;94282.22;4952121;28;20050;-84
2022/01/01 11:00:42;;;;;;;20.48;13.80;;;;;;;15.44;48.92;94274.69;4936683;28;20030;-82
2022/01/01 11:03:15;;;;;;;26.05;15.30;;;;;;;15.48;48.66;94267.09;4936135;28;20041;-84
2022/01/01 11:05:40;;;;;;;16.38;13.23;;;;;;;15.48;48.56;94266.31;4937483;28;20095;-84
2022/01/01 11:08:07;;;;;;;18.95;14.80;;;;;;;15.44;48.64;94278.16;4951724;28;20064;-82
2022/01/01 11:10:32;;;;;;;19.83;14.93;;;;;;;15.47;48.90;94284.66;4936314;28;20043;-82
2022/01/01 11:12:59;;;;;;;18.98;12.77;;;;;;;15.48;48.74;94279.94;4955464;28;20159;-84
2022/01/01 11:15:24;;;;;;;20.75;14.95;;;;;;;15.46;48.91;94279.66;4924384;28;20089;-84
2022/01/01 11:17:50;;;;;;;19.92;14.85;;;;;;;15.47;48.78;94284.66;4956798;28;20034;-84
2022/01/01 11:20:16;;;;;;;24.63;15.65;;;;;;;15.50;48.70;94283.72;4955508;28;20042;-83
2022/01/01 11:22:42;;;;;;;14.88;12.93;;;;;;;15.51;48.56;94287.94;4953194;28;20578;-84
2022/01/01 11:25:07;;;;;;;17.45;13.90;;;;;;;15.52;48.51;94283.25;4920938;28;20503;-83
2022/01/01 11:27:33;;;;;;;19.63;15.15;;;;;;;15.54;48.72;94286.25;4921491;29;20043;-83
2022/01/01 11:29:59;;;;;;;25.42;15.15;;;;;;;15.52;48.65;94284.00;4921263;29;20031;-83
2022/01/01 11:32:39;;;;;;;29.50;16.17;;;;;;;15.57;48.49;94288.06;4917209;28;20130;-83